Flag for Spain

Past Weather in Santa María de la Alameda, Madrid, Spain — Yesterday and Last 2 Weeks

Currently: 64 °F. Sunny. (Weather station: Madrid / Cuatro Vientos, Spain). See more current weather

Past Weather in Santa María de la Alameda — Graph

°F

Santa María de la Alameda Temperature Yesterday

Maximum temperature yesterday: 75 °F (at 3:30 pm)
Minimum temperature yesterday: 54 °F (at 7:00 am)
Average temperature yesterday: 64 °F

High & Low Weather Summary for the Past Weeks

 TemperatureHumidityPressure
High90 °F (Sep 12, 5:00 pm)100% (Sep 14, 3:05 pm)30.24 "Hg (Sep 14, 3:05 pm)
Low54 °F (Sep 21, 5:00 am)21% (Sep 12, 5:00 pm)29.95 "Hg (Sep 12, 8:00 pm)
Average67 °F63%30.09 "Hg
* Reported Sep 12 9:00 am — Sep 27 9:00 am, Santa María de la Alameda. Weather by CustomWeather, © 2021

Note: Actual official high and low records may vary slightly from our data, if they occured in-between our weather recording intervals... More about our weather records

Santa María de la Alameda Weather History for the Previous 24 Hours

Scroll right to see more
 ConditionsComfort  
Time TempWeatherWind HumidityBarometerVisibility
9:00 am
Mon, Sep 27
57 °FSunny.1 mph82%30.21 "Hg10 mi
8:30 am54 °FSunny.No wind94%30.21 "Hg10 mi
8:00 am54 °FClear.1 mph94%30.21 "Hg10 mi
7:30 am54 °FClear.1 mph88%30.21 "Hg10 mi
7:00 am54 °FClear.No wind88%30.21 "Hg10 mi
6:30 am55 °FClear.No wind88%30.21 "Hg10 mi
6:00 am55 °FClear.1 mph88%30.21 "Hg10 mi
5:30 am57 °FClear.2 mph82%30.21 "Hg10 mi
5:00 am55 °FClear.3 mph82%30.21 "Hg10 mi
4:30 am55 °FClear.5 mph88%30.21 "Hg10 mi
4:00 am57 °FClear.3 mph77%30.21 "Hg10 mi
3:30 am59 °FClear.2 mph72%30.21 "Hg10 mi
3:00 am59 °FClear.3 mph72%30.21 "Hg10 mi
2:30 am57 °FClear.2 mph77%30.21 "Hg10 mi
2:00 am61 °FClear.2 mph68%30.21 "Hg10 mi
1:30 am61 °FClear.1 mph68%30.21 "Hg10 mi
1:00 am61 °FClear.2 mph68%30.21 "Hg10 mi
12:30 am61 °FClear.2 mph68%30.21 "Hg10 mi
12:00 am63 °FClear.3 mph64%30.21 "Hg10 mi
11:30 pm
Sun, Sep 26
63 °FClear.5 mph64%30.21 "Hg10 mi
11:00 pm61 °FPassing clouds.3 mph72%30.21 "HgN/A
10:30 pm63 °FClear.2 mph64%30.21 "Hg10 mi
10:00 pm63 °FClear.3 mph68%30.21 "Hg10 mi
9:30 pm63 °FClear.5 mph64%30.18 "Hg10 mi
9:00 pm66 °FPassing clouds.5 mph60%30.18 "HgN/A
8:30 pm68 °FPassing clouds.5 mph56%30.18 "HgN/A
8:00 pm70 °FSunny.7 mph53%30.18 "Hg10 mi
7:30 pm72 °FSunny.7 mph50%30.18 "Hg10 mi
7:00 pm73 °FPassing clouds.7 mph44%30.18 "HgN/A
6:30 pm75 °FPassing clouds.8 mph41%30.18 "HgN/A
6:00 pm75 °FPassing clouds.8 mph41%30.18 "HgN/A
5:30 pm75 °FPassing clouds.8 mph41%30.18 "HgN/A
5:00 pm75 °FPassing clouds.8 mph41%30.18 "HgN/A
4:30 pm75 °FPassing clouds.7 mph41%30.18 "HgN/A
4:00 pm75 °FPassing clouds.7 mph44%30.18 "HgN/A
3:30 pm75 °FPassing clouds.6 mph44%30.21 "HgN/A
3:00 pm73 °FPassing clouds.6 mph47%30.21 "HgN/A
2:30 pm73 °FPassing clouds.6 mph47%30.21 "HgN/A
2:00 pm72 °FPassing clouds.7 mph53%30.21 "HgN/A
1:30 pm72 °FPassing clouds.5 mph53%30.21 "HgN/A
12:30 pm70 °FPassing clouds.5 mph53%30.24 "HgN/A
11:30 am68 °FSunny.5 mph56%30.24 "Hg10 mi
10:30 am66 °FSunny.No wind68%30.21 "Hg10 mi
Weather by CustomWeather, © 2021

See weather overview